Detall de PIREP

Printer-friendly versionPDF version

[2011/06/20 20:16:00]
Flight IATA:CT3117
Pilot Number:026
Company ICAO:CAT
Aircraft Type:DC85/A
PAX:132
Departing Airport: LEZG
Destination Airport: LEBL
Alternate Airport:LEGE
Online: VATSIM
Route:PONEN W800 CASPE
Flight Level:F180
No Slew and time accel
No pause
Crash detect
Detect pilot in Cockpit between each 30 and 45 minutes
20:16 Zero fuel Weight: 178626 Lbs, Fuel Weight: 20090 Lbs
20:16 VATSIM:LEZG 202000Z 12009KT 9999 -RA SCT050CB 30/17 Q1015
20:16 VATSIM:LEBL 201900Z 22012KT CAVOK 22/20 Q1017 NOSIG
20:17 VOICE CATALONIAN / INTERHUB ROUTE CT3117
20:27 Parking Brakes off
20:35 Take-off
20:35 Take off Weight: 197229 Lbs
20:35 Wind: 123º @ 009 Knots Heading: 120º
20:35 POS N41º 39´ 32´´ W001º 00´ 59´´
20:35 Gear Up: 170 Knots
20:35 Flaps:3 at 170 Knots
20:35 Flaps:2 at 186 Knots
20:36 Flaps:1 at 178 Knots
20:36 Flaps:0 at 188 Knots
20:42 TOC
20:42 FuelWeight: 16048 Lb
20:50 Wind:226º@010 Knots Heading: 086º Ground Speed: 427 Knots Altitude 18136 ft
20:50 TOD
20:50 Fuel Weight: 14137 Lb
21:04 Gear Down: 188 Knots
21:05 Wind:230º@008 Knots Heading: 247º Ground Speed: 165 Knots Altitude 2352 ft
21:05 Flaps:1 at 175 Knots
21:05 Flaps:2 at 167 Knots
21:05 Flaps:3 at 157 Knots
21:06 Flaps:4 at 152 Knots
21:06 Flaps:5 at 146 Knots
21:07 TouchDown:Rate -124 ft/min Speed: 123 Knots
21:07 VATSIM:LEBL 202100Z 24005KT 200V260 CAVOK 22/19 Q1018 NOSIG
21:07 Land
21:07 Wind:240º@010 Knots
21:07 Heading: 246º
21:07 Flight Duration: 00:32
21:07 Landing Weight: 191084 Lbs
21:07 POS N41º 18´ 03´´ E002º 05´ 25´´
21:12 Parking brakes on
21:12 Block to Block Duration: 00:45
21:12 Final Fuel: 11962 Lbls
21:12 Spent Fuel: 8128 Lbls
21:12 Flight Length: 170 NM
21:12 TOD Land Length: 80 NM

Exportar CSV

Powered by Drupal - Modified by Danger4k